createdAt,value
2023-04-06T00:05:54.454Z,47.25
2023-04-06T00:12:57.478Z,47.13
2023-04-06T00:19:59.091Z,47.09
2023-04-06T00:27:00.856Z,47.16
2023-04-06T00:34:02.453Z,47.34
2023-04-06T00:41:04.882Z,47.65
2023-04-06T00:48:07.100Z,47.68
2023-04-06T00:55:09.018Z,47.79
2023-04-06T01:02:15.991Z,48.28
2023-04-06T01:09:22.958Z,48.33
2023-04-06T01:16:28.154Z,48.51
2023-04-06T01:23:56.130Z,48.40
2023-04-06T01:31:07.756Z,48.47
2023-04-06T01:38:20.512Z,48.76
2023-04-06T01:45:23.750Z,49.00
2023-04-06T01:52:28.206Z,48.85
2023-04-06T01:59:30.548Z,49.03
2023-04-06T02:06:34.199Z,49.50
2023-04-06T02:13:37.977Z,50.50
2023-04-06T02:20:39.641Z,50.36
2023-04-06T02:27:41.277Z,49.98
2023-04-06T02:34:42.873Z,50.23
2023-04-06T02:41:45.593Z,50.14
2023-04-06T02:48:49.943Z,51.64
2023-04-06T02:55:51.650Z,50.81
2023-04-06T03:02:53.454Z,51.61
2023-04-06T03:09:55.499Z,51.51
2023-04-06T03:16:57.153Z,51.88
2023-04-06T03:24:00.464Z,51.74
2023-04-06T03:31:02.509Z,52.66
2023-04-06T03:38:25.898Z,53.68
2023-04-06T03:45:28.844Z,53.67
2023-04-06T03:52:30.548Z,53.08
2023-04-06T03:59:32.248Z,53.43
2023-04-06T04:06:33.861Z,54.01
2023-04-06T04:13:35.540Z,54.36
2023-04-06T04:20:40.408Z,55.45
2023-04-06T04:27:43.737Z,55.74
2023-04-06T04:34:45.637Z,57.84
2023-04-06T04:41:57.305Z,57.90
2023-04-06T04:48:59.294Z,58.96
2023-04-06T04:56:02.377Z,60.31
2023-04-06T05:03:04.995Z,59.18
2023-04-06T05:10:10.803Z,59.13
2023-04-06T05:17:22.043Z,59.09
2023-04-06T05:24:26.438Z,58.64
2023-04-06T05:31:30.443Z,59.31
2023-04-06T05:38:34.235Z,58.85
2023-04-06T05:45:45.752Z,59.06
2023-04-06T05:52:47.642Z,58.75
2023-04-06T05:59:52.659Z,59.18
2023-04-06T06:06:56.161Z,58.11
2023-04-06T06:14:03.562Z,57.99
2023-04-06T06:21:08.918Z,57.29
2023-04-06T06:28:10.633Z,57.13
2023-04-06T06:35:12.611Z,57.56
2023-04-06T06:42:14.800Z,56.34
2023-04-06T06:49:26.820Z,55.32
2023-04-06T06:56:28.861Z,55.25
2023-04-06T07:03:31.710Z,55.02
2023-04-06T07:10:33.422Z,54.48
2023-04-06T07:17:35.151Z,54.08
2023-04-06T07:24:36.891Z,50.36
2023-04-06T07:31:38.566Z,47.40
2023-04-06T07:38:40.424Z,46.27
2023-04-06T07:45:42.172Z,45.52
2023-04-06T07:52:44.323Z,43.54
2023-04-06T07:59:46.313Z,41.77
2023-04-06T08:06:47.926Z,40.45
2023-04-06T08:13:49.493Z,38.93
2023-04-06T08:20:51.117Z,37.58
2023-04-06T08:27:52.857Z,37.53
2023-04-06T08:34:55.954Z,34.96
2023-04-06T08:41:58.852Z,33.02
2023-04-06T08:49:01.950Z,33.14
2023-04-06T08:56:05.718Z,31.47
2023-04-06T09:03:07.546Z,30.21
2023-04-06T09:10:09.728Z,30.29
2023-04-06T09:17:21.226Z,28.65
2023-04-06T09:24:27.047Z,27.95
2023-04-06T09:31:30.213Z,27.53
2023-04-06T09:38:31.962Z,27.90
2023-04-06T09:45:33.573Z,26.59
2023-04-06T09:52:39.403Z,26.34
2023-04-06T09:59:43.859Z,26.08
2023-04-06T10:06:45.488Z,25.57
2023-04-06T10:13:48.647Z,24.73
2023-04-06T10:20:52.472Z,24.51
2023-04-06T10:28:00.623Z,23.44
2023-04-06T10:35:09.410Z,24.27
2023-04-06T10:42:11.586Z,25.24
2023-04-06T10:49:13.325Z,24.65
2023-04-06T10:56:16.270Z,21.66
2023-04-06T11:03:17.992Z,21.43
2023-04-06T11:10:23.649Z,21.04
2023-04-06T11:17:32.257Z,19.49
2023-04-06T11:24:33.812Z,20.83
2023-04-06T11:31:42.114Z,19.17
2023-04-06T11:38:43.686Z,17.99
2023-04-06T11:45:45.884Z,17.32
2023-04-06T11:52:48.808Z,17.47
2023-04-06T11:59:50.725Z,20.14
2023-04-06T12:06:52.335Z,21.11
2023-04-06T12:13:54.350Z,21.76
2023-04-06T12:20:56.000Z,20.88
2023-04-06T12:27:57.756Z,19.90
2023-04-06T12:34:59.312Z,18.50
2023-04-06T12:42:03.681Z,19.28
2023-04-06T12:49:05.322Z,18.54
2023-04-06T12:56:18.223Z,17.60
2023-04-06T13:03:20.407Z,18.14
2023-04-06T13:10:22.017Z,18.94
2023-04-06T13:17:23.789Z,17.84
2023-04-06T13:24:25.429Z,16.89
2023-04-06T13:31:27.171Z,17.41
2023-04-06T13:38:28.839Z,17.10
2023-04-06T13:45:30.441Z,18.12
2023-04-06T13:52:32.016Z,17.41
2023-04-06T13:59:34.731Z,17.87
2023-04-06T14:06:36.332Z,18.04
2023-04-06T14:13:37.846Z,18.05
2023-04-06T14:20:39.451Z,19.12
2023-04-06T14:27:41.264Z,19.54
2023-04-06T14:34:42.894Z,18.97
2023-04-06T14:41:44.457Z,18.28
2023-04-06T14:48:46.281Z,18.02
2023-04-06T14:55:47.870Z,18.11
2023-04-06T15:02:49.573Z,18.32
2023-04-06T15:09:51.230Z,18.29
2023-04-06T15:16:52.783Z,18.03
2023-04-06T15:23:54.793Z,18.89
2023-04-06T15:30:56.734Z,18.84
2023-04-06T15:37:58.508Z,18.90
2023-04-06T15:45:00.149Z,19.48
2023-04-06T15:52:01.779Z,19.42
2023-04-06T15:59:04.229Z,20.05
2023-04-06T16:06:08.969Z,20.39
2023-04-06T16:13:11.160Z,20.48
2023-04-06T16:20:15.634Z,20.57
2023-04-06T16:27:17.627Z,20.62
2023-04-06T16:34:19.202Z,20.88
2023-04-06T16:41:21.511Z,21.89
2023-04-06T16:48:24.176Z,22.80
2023-04-06T16:55:25.713Z,23.30
2023-04-06T17:02:27.380Z,23.48
2023-04-06T17:09:29.022Z,24.24
2023-04-06T17:16:30.816Z,24.53
2023-04-06T17:23:32.448Z,24.57
2023-04-06T17:30:34.530Z,25.06
2023-04-06T17:37:36.378Z,25.14
2023-04-06T17:44:38.536Z,25.48
2023-04-06T17:51:40.136Z,25.94
2023-04-06T17:58:41.720Z,26.30
2023-04-06T18:05:43.325Z,26.85
2023-04-06T18:12:44.956Z,27.45
2023-04-06T18:19:47.124Z,27.60
2023-04-06T18:26:48.743Z,27.98
2023-04-06T18:33:52.013Z,28.52
2023-04-06T18:40:55.705Z,28.96
2023-04-06T18:47:57.310Z,29.28
2023-04-06T18:54:58.892Z,29.84
2023-04-06T19:02:00.590Z,29.70
2023-04-06T19:09:04.586Z,30.12
2023-04-06T19:16:12.477Z,30.81
2023-04-06T19:23:14.212Z,31.17
2023-04-06T19:30:16.108Z,31.48
2023-04-06T19:37:17.703Z,32.19
2023-04-06T19:44:19.259Z,32.15
2023-04-06T19:51:20.809Z,32.29
2023-04-06T19:58:23.238Z,32.27
2023-04-06T20:05:24.774Z,32.61
2023-04-06T20:12:26.380Z,32.84
2023-04-06T20:19:27.952Z,33.23
2023-04-06T20:26:32.312Z,33.33
2023-04-06T20:33:36.925Z,33.17
2023-04-06T20:40:38.439Z,33.37
2023-04-06T20:47:40.336Z,33.41
2023-04-06T20:54:41.972Z,33.65
2023-04-06T21:01:44.224Z,33.96
2023-04-06T21:08:46.064Z,34.14
2023-04-06T21:15:48.376Z,34.52
2023-04-06T21:22:50.020Z,34.82
2023-04-06T21:29:51.613Z,35.15
2023-04-06T21:36:53.274Z,35.40
2023-04-06T21:43:54.878Z,35.58
2023-04-06T21:50:56.428Z,35.98
2023-04-06T21:57:57.957Z,35.92
2023-04-06T22:04:59.559Z,35.93
2023-04-06T22:12:01.303Z,36.65
2023-04-06T22:19:02.863Z,36.49
2023-04-06T22:26:04.464Z,36.43
2023-04-06T22:33:06.625Z,36.65
2023-04-06T22:40:08.779Z,37.07
2023-04-06T22:47:10.393Z,37.21
2023-04-06T22:54:12.352Z,37.14
2023-04-06T23:01:14.111Z,37.41
2023-04-06T23:08:15.713Z,37.52
2023-04-06T23:15:17.338Z,38.45
2023-04-06T23:22:18.895Z,38.49
2023-04-06T23:29:20.557Z,38.77
2023-04-06T23:36:22.075Z,39.05
2023-04-06T23:43:23.620Z,39.16
2023-04-06T23:50:25.292Z,39.66
2023-04-06T23:57:26.949Z,39.64
